createdAt,value
2022-09-18T00:00:14.515Z,10.66
2022-09-18T00:01:19.726Z,10.63
2022-09-18T00:02:21.944Z,10.61
2022-09-18T00:03:25.059Z,10.58
2022-09-18T00:04:27.570Z,10.57
2022-09-18T00:05:30.606Z,10.54
2022-09-18T00:06:36.399Z,10.50
2022-09-18T00:07:39.548Z,10.46
2022-09-18T00:08:43.702Z,10.46
2022-09-18T00:09:47.242Z,10.44
2022-09-18T00:10:50.608Z,10.42
2022-09-18T00:11:55.561Z,10.40
2022-09-18T00:12:59.309Z,10.37
2022-09-18T00:14:02.346Z,10.35
2022-09-18T00:15:07.099Z,10.35
2022-09-18T00:16:12.298Z,10.33
2022-09-18T00:17:14.655Z,10.31
2022-09-18T00:18:17.702Z,10.30
2022-09-18T00:19:20.528Z,10.29
2022-09-18T00:20:23.562Z,10.28
2022-09-18T00:21:26.626Z,10.28
2022-09-18T00:22:29.667Z,10.26
2022-09-18T00:23:31.709Z,10.27
2022-09-18T00:24:34.737Z,10.26
2022-09-18T00:25:36.786Z,10.26
2022-09-18T00:26:41.853Z,10.26
2022-09-18T00:27:43.899Z,10.25
2022-09-18T00:28:47.360Z,10.25
2022-09-18T00:29:49.704Z,10.26
2022-09-18T00:30:54.634Z,10.26
2022-09-18T00:31:56.761Z,10.25
2022-09-18T00:32:59.891Z,10.28
2022-09-18T00:34:04.005Z,10.29
2022-09-18T00:35:08.020Z,10.30
2022-09-18T00:36:12.253Z,10.31
2022-09-18T00:37:15.439Z,10.32
2022-09-18T00:38:17.634Z,10.34
2022-09-18T00:39:20.681Z,10.36
2022-09-18T00:40:22.793Z,10.36
2022-09-18T00:41:28.517Z,10.37
2022-09-18T00:42:31.917Z,10.40
2022-09-18T00:43:37.357Z,10.42
2022-09-18T00:44:42.020Z,10.43
2022-09-18T00:45:47.478Z,10.44
2022-09-18T00:46:49.569Z,10.47
2022-09-18T00:47:53.720Z,10.49
2022-09-18T00:49:03.364Z,10.50
2022-09-18T00:50:12.340Z,10.46
2022-09-18T00:51:15.667Z,10.52
2022-09-18T00:52:21.218Z,10.53
2022-09-18T00:53:24.105Z,10.54
2022-09-18T00:54:30.154Z,10.54
2022-09-18T00:55:34.856Z,10.56
2022-09-18T00:56:38.871Z,10.56
2022-09-18T00:57:49.457Z,10.56
2022-09-18T00:58:52.571Z,10.56
2022-09-18T00:59:55.228Z,10.55
2022-09-18T01:01:02.369Z,10.58
2022-09-18T01:02:04.880Z,10.59
2022-09-18T01:03:08.085Z,10.60
2022-09-18T01:04:11.236Z,10.59
2022-09-18T01:05:17.522Z,10.60
2022-09-18T01:06:27.991Z,10.59
2022-09-18T01:07:42.909Z,10.57
2022-09-18T01:08:56.372Z,10.58
2022-09-18T01:10:12.188Z,10.58
2022-09-18T01:11:27.669Z,10.58
2022-09-18T01:12:39.055Z,10.57
2022-09-18T01:13:52.042Z,10.58
2022-09-18T01:15:04.881Z,10.58
2022-09-18T01:16:14.470Z,10.59
2022-09-18T01:17:27.149Z,10.60
2022-09-18T01:18:40.393Z,10.61
2022-09-18T01:20:21.549Z,10.61
2022-09-18T01:21:32.984Z,10.60
2022-09-18T01:22:51.508Z,10.60
2022-09-18T01:24:28.400Z,10.61
2022-09-18T01:25:38.844Z,10.58
2022-09-18T01:26:51.238Z,10.62
2022-09-18T01:28:11.831Z,10.62
2022-09-18T01:29:22.177Z,10.61
2022-09-18T01:30:24.918Z,10.61
2022-09-18T01:31:32.580Z,10.61
2022-09-18T01:32:41.485Z,10.61
2022-09-18T01:33:51.247Z,10.59
2022-09-18T01:35:00.047Z,10.58
2022-09-18T01:36:08.593Z,10.57
2022-09-18T01:37:17.457Z,10.55
2022-09-18T01:38:25.003Z,10.54
2022-09-18T01:39:34.638Z,10.51
2022-09-18T01:40:41.005Z,10.50
2022-09-18T01:41:50.899Z,10.46
2022-09-18T01:43:01.608Z,10.46
2022-09-18T01:44:09.153Z,10.43
2022-09-18T01:45:17.287Z,10.40
2022-09-18T01:46:20.841Z,10.39
2022-09-18T01:47:28.976Z,10.38
2022-09-18T01:48:34.031Z,10.36
2022-09-18T01:49:42.794Z,10.33
2022-09-18T01:50:53.188Z,10.31
2022-09-18T01:52:01.384Z,10.29
2022-09-18T01:53:11.197Z,10.26
2022-09-18T01:54:16.238Z,10.26
2022-09-18T01:55:23.713Z,10.24
2022-09-18T01:56:27.447Z,10.24
2022-09-18T01:57:37.608Z,10.19
2022-09-18T01:58:42.471Z,10.19
2022-09-18T01:59:48.061Z,10.17
2022-09-18T02:00:55.431Z,10.15
2022-09-18T02:02:03.508Z,10.09
2022-09-18T02:03:11.837Z,10.09
2022-09-18T02:04:22.071Z,10.07
2022-09-18T02:05:28.919Z,10.06
2022-09-18T02:06:36.377Z,10.04
2022-09-18T02:07:48.600Z,10.02
2022-09-18T02:08:54.308Z,9.99
2022-09-18T02:09:59.615Z,9.97
2022-09-18T02:11:07.155Z,9.95
2022-09-18T02:12:15.880Z,9.94
2022-09-18T02:13:23.996Z,9.92
2022-09-18T02:14:32.917Z,9.92
2022-09-18T02:16:08.473Z,9.89
2022-09-18T02:17:17.452Z,9.87
2022-09-18T02:18:27.285Z,9.85
2022-09-18T02:19:35.633Z,9.86
2022-09-18T02:20:42.419Z,9.85
2022-09-18T02:21:47.290Z,9.84
2022-09-18T02:22:53.937Z,9.84
2022-09-18T02:24:03.357Z,9.85
2022-09-18T02:25:13.125Z,9.85
2022-09-18T02:26:19.555Z,9.86
2022-09-18T02:27:24.873Z,9.86
2022-09-18T02:28:31.249Z,9.87
2022-09-18T02:29:37.277Z,9.87
2022-09-18T02:30:40.949Z,9.84
2022-09-18T02:31:43.517Z,9.88
2022-09-18T02:32:46.874Z,9.89
2022-09-18T02:33:49.376Z,9.89
2022-09-18T02:34:52.502Z,9.90
2022-09-18T02:36:08.261Z,9.86
2022-09-18T02:37:34.290Z,9.91
2022-09-18T02:38:44.438Z,9.91
2022-09-18T02:40:00.268Z,9.91
2022-09-18T02:41:12.112Z,9.92
2022-09-18T02:42:27.988Z,9.94
2022-09-18T02:43:40.483Z,9.95
2022-09-18T02:44:52.065Z,9.96
2022-09-18T02:46:01.451Z,9.97
2022-09-18T02:47:14.715Z,9.95
2022-09-18T02:48:31.699Z,9.96
2022-09-18T02:49:46.217Z,9.96
2022-09-18T02:50:56.506Z,9.95
2022-09-18T02:52:06.149Z,9.93
2022-09-18T02:53:13.870Z,9.94
2022-09-18T02:54:25.449Z,9.91
2022-09-18T02:55:37.680Z,9.90
2022-09-18T02:56:45.100Z,9.87
2022-09-18T02:57:49.822Z,9.88
2022-09-18T02:58:56.541Z,9.87
2022-09-18T03:00:03.883Z,9.85
2022-09-18T03:01:09.438Z,9.85
2022-09-18T03:02:12.874Z,9.85
2022-09-18T03:03:18.542Z,9.84
2022-09-18T03:04:28.445Z,9.84
2022-09-18T03:05:39.988Z,9.83
2022-09-18T03:06:42.171Z,9.81
2022-09-18T03:07:45.351Z,9.81
2022-09-18T03:08:47.380Z,9.82
2022-09-18T03:09:50.553Z,9.82
2022-09-18T03:10:52.685Z,9.82
2022-09-18T03:11:55.979Z,9.83
2022-09-18T03:12:58.234Z,9.83
2022-09-18T03:14:01.701Z,9.82
2022-09-18T03:15:06.268Z,9.83
2022-09-18T03:16:10.919Z,9.83
2022-09-18T03:17:13.048Z,9.81
2022-09-18T03:18:16.126Z,9.83
2022-09-18T03:19:18.562Z,9.83
2022-09-18T03:20:21.759Z,9.81
2022-09-18T03:21:24.449Z,9.81
2022-09-18T03:22:27.568Z,9.78
2022-09-18T03:23:29.612Z,9.75
2022-09-18T03:24:48.092Z,9.75
2022-09-18T03:25:52.211Z,9.74
2022-09-18T03:26:55.650Z,9.73
2022-09-18T03:28:00.328Z,9.71
2022-09-18T03:29:15.284Z,9.70
2022-09-18T03:30:19.693Z,9.68
2022-09-18T03:31:25.436Z,9.66
2022-09-18T03:32:27.572Z,9.66
2022-09-18T03:33:30.619Z,9.64
2022-09-18T03:34:32.660Z,9.63
2022-09-18T03:35:35.715Z,9.62
2022-09-18T03:36:39.405Z,9.61
2022-09-18T03:37:42.410Z,9.59
2022-09-18T03:38:47.156Z,9.58
2022-09-18T03:39:49.324Z,9.58
2022-09-18T03:40:52.362Z,9.56
2022-09-18T03:41:54.420Z,9.57
2022-09-18T03:42:57.649Z,9.56
2022-09-18T03:44:00.319Z,9.56
2022-09-18T03:45:03.418Z,9.55
2022-09-18T03:46:07.363Z,9.55
2022-09-18T03:47:10.626Z,9.50
2022-09-18T03:48:12.667Z,9.52
2022-09-18T03:49:15.743Z,9.52
2022-09-18T03:50:18.508Z,9.50
2022-09-18T03:51:22.299Z,9.48
2022-09-18T03:52:24.436Z,9.45
2022-09-18T03:53:35.960Z,9.43
2022-09-18T03:55:01.035Z,9.41
2022-09-18T03:56:23.122Z,9.39
2022-09-18T03:57:48.433Z,9.39
2022-09-18T03:59:11.117Z,9.39
2022-09-18T04:00:25.627Z,9.39
2022-09-18T04:01:35.200Z,9.39
2022-09-18T04:02:55.893Z,9.40
2022-09-18T04:04:19.307Z,9.39
2022-09-18T04:05:41.655Z,9.39
2022-09-18T04:07:10.949Z,9.28
2022-09-18T04:08:21.933Z,9.40
2022-09-18T04:09:51.076Z,9.41
2022-09-18T04:10:53.487Z,9.42
2022-09-18T04:11:56.562Z,9.42
2022-09-18T04:12:58.667Z,9.45
2022-09-18T04:14:07.102Z,9.45
2022-09-18T04:15:10.269Z,9.47
2022-09-18T04:16:13.381Z,9.48
2022-09-18T04:17:16.931Z,9.49
2022-09-18T04:18:20.062Z,9.49
2022-09-18T04:19:22.240Z,9.51
2022-09-18T04:20:26.023Z,9.51
2022-09-18T04:21:28.241Z,9.52
2022-09-18T04:22:31.307Z,9.51
2022-09-18T04:23:33.290Z,9.51
2022-09-18T04:24:36.473Z,9.51
2022-09-18T04:25:40.094Z,9.50
2022-09-18T04:26:43.174Z,9.50
2022-09-18T04:27:46.188Z,9.48
2022-09-18T04:28:49.547Z,9.45
2022-09-18T04:29:54.594Z,9.45
2022-09-18T04:30:59.284Z,9.43
2022-09-18T04:32:01.700Z,9.42
2022-09-18T04:33:08.020Z,9.39
2022-09-18T04:34:10.233Z,9.37
2022-09-18T04:35:13.732Z,9.36
2022-09-18T04:36:17.549Z,9.34
2022-09-18T04:37:21.455Z,9.33
2022-09-18T04:38:27.770Z,9.32
2022-09-18T04:39:32.730Z,9.31
2022-09-18T04:40:38.121Z,9.30
2022-09-18T04:41:41.203Z,9.29
2022-09-18T04:42:43.300Z,9.28
2022-09-18T04:43:46.494Z,9.26
2022-09-18T04:44:49.724Z,9.25
2022-09-18T04:45:52.865Z,9.24
2022-09-18T04:46:55.180Z,9.20
2022-09-18T04:47:58.287Z,9.23
2022-09-18T04:49:02.482Z,9.22
2022-09-18T04:50:08.853Z,9.20
2022-09-18T04:51:10.915Z,9.16
2022-09-18T04:52:32.802Z,9.17
2022-09-18T04:53:38.033Z,9.17
2022-09-18T04:54:42.129Z,9.17
2022-09-18T04:55:45.855Z,9.12
2022-09-18T04:56:49.900Z,9.15
2022-09-18T04:57:54.623Z,9.06
2022-09-18T04:58:59.996Z,9.13
2022-09-18T05:00:02.655Z,9.14
2022-09-18T05:01:06.226Z,9.13
2022-09-18T05:02:08.479Z,9.13
2022-09-18T05:03:12.377Z,9.13
2022-09-18T05:04:17.760Z,9.13
2022-09-18T05:05:29.420Z,9.14
2022-09-18T05:06:31.972Z,9.15
2022-09-18T05:07:36.623Z,9.16
2022-09-18T05:08:38.714Z,9.16
2022-09-18T05:09:43.004Z,9.16
2022-09-18T05:10:45.307Z,9.16
2022-09-18T05:11:49.310Z,9.17
2022-09-18T05:12:52.686Z,9.16
2022-09-18T05:13:57.009Z,9.17
2022-09-18T05:15:01.034Z,9.18
2022-09-18T05:16:04.843Z,9.20
2022-09-18T05:17:06.981Z,9.21
2022-09-18T05:18:23.122Z,9.20
2022-09-18T05:19:30.438Z,9.23
2022-09-18T05:20:41.900Z,9.23
2022-09-18T05:21:44.656Z,9.25
2022-09-18T05:22:48.436Z,9.26
2022-09-18T05:23:55.865Z,9.26
2022-09-18T05:24:58.933Z,9.25
2022-09-18T05:26:01.038Z,9.28
2022-09-18T05:27:04.765Z,9.29
2022-09-18T05:28:06.864Z,9.28
2022-09-18T05:29:21.464Z,9.29
2022-09-18T05:30:27.217Z,9.30
2022-09-18T05:31:33.728Z,9.31
2022-09-18T05:32:36.284Z,9.31
2022-09-18T05:33:41.269Z,9.32
2022-09-18T05:34:44.799Z,9.32
2022-09-18T05:35:47.936Z,9.33
2022-09-18T05:36:50.030Z,9.34
2022-09-18T05:37:54.098Z,9.34
2022-09-18T05:38:56.127Z,9.34
2022-09-18T05:40:00.552Z,9.33
2022-09-18T05:41:03.501Z,9.33
2022-09-18T05:42:07.130Z,9.34
2022-09-18T05:43:09.389Z,9.33
2022-09-18T05:44:13.104Z,9.35
2022-09-18T05:45:15.519Z,9.35
2022-09-18T05:46:18.907Z,9.36
2022-09-18T05:47:36.203Z,9.37
2022-09-18T05:48:39.859Z,9.38
2022-09-18T05:49:42.224Z,9.39
2022-09-18T05:50:46.807Z,9.40
2022-09-18T05:51:51.274Z,9.42
2022-09-18T05:53:03.866Z,9.43
2022-09-18T05:54:15.648Z,9.44
2022-09-18T05:55:22.396Z,9.45
2022-09-18T05:56:26.150Z,9.44
2022-09-18T05:57:30.034Z,9.46
2022-09-18T05:58:34.230Z,9.48
2022-09-18T05:59:36.899Z,9.48
2022-09-18T06:00:40.362Z,9.48
2022-09-18T06:01:48.021Z,9.50
2022-09-18T06:02:54.675Z,9.52
2022-09-18T06:03:59.511Z,9.52
2022-09-18T06:05:04.345Z,9.53
2022-09-18T06:06:09.390Z,9.53
2022-09-18T06:07:13.071Z,9.53
2022-09-18T06:08:16.069Z,9.53
2022-09-18T06:09:18.768Z,9.52
2022-09-18T06:10:23.306Z,9.52
2022-09-18T06:11:25.621Z,9.52
2022-09-18T06:12:28.678Z,9.54
2022-09-18T06:13:30.710Z,9.53
2022-09-18T06:14:33.759Z,9.54
2022-09-18T06:15:36.719Z,9.55
2022-09-18T06:16:42.441Z,9.56
2022-09-18T06:17:52.041Z,9.56
2022-09-18T06:18:55.250Z,9.56
2022-09-18T06:19:59.355Z,9.58
2022-09-18T06:21:02.449Z,9.58
2022-09-18T06:22:07.548Z,9.58
2022-09-18T06:23:11.697Z,9.59
2022-09-18T06:24:25.129Z,9.59
2022-09-18T06:25:48.679Z,9.59
2022-09-18T06:26:52.283Z,9.58
2022-09-18T06:27:58.781Z,9.58
2022-09-18T06:29:01.153Z,9.60
2022-09-18T06:30:10.065Z,9.60
2022-09-18T06:31:13.088Z,9.61
2022-09-18T06:32:30.877Z,9.64
2022-09-18T06:33:35.777Z,9.65
2022-09-18T06:34:38.872Z,9.67
2022-09-18T06:35:43.610Z,9.69
2022-09-18T06:36:46.324Z,9.71
2022-09-18T06:38:03.934Z,9.73
2022-09-18T06:39:32.010Z,9.76
2022-09-18T06:40:36.171Z,9.77
2022-09-18T06:41:50.284Z,9.78
2022-09-18T06:43:03.789Z,9.78
2022-09-18T06:44:32.859Z,9.76
2022-09-18T06:45:39.365Z,9.74
2022-09-18T06:46:42.546Z,9.72
2022-09-18T06:47:54.282Z,9.71
2022-09-18T06:48:57.819Z,9.69
2022-09-18T06:50:00.927Z,9.66
2022-09-18T06:51:04.399Z,9.64
2022-09-18T06:52:16.729Z,9.61
2022-09-18T06:53:21.290Z,9.59
2022-09-18T06:54:27.717Z,9.59
2022-09-18T06:55:32.404Z,9.57
2022-09-18T06:56:35.331Z,9.61
2022-09-18T06:57:38.563Z,9.65
2022-09-18T06:58:40.791Z,9.71
2022-09-18T06:59:43.815Z,9.79
2022-09-18T07:00:47.319Z,9.86
2022-09-18T07:01:57.968Z,9.94
2022-09-18T07:03:21.341Z,10.00
2022-09-18T07:04:56.602Z,9.98
2022-09-18T07:05:58.701Z,10.07
2022-09-18T07:08:04.873Z,10.09
2022-09-18T07:09:12.649Z,10.09
2022-09-18T07:10:38.659Z,10.10
2022-09-18T07:11:40.967Z,10.09
2022-09-18T07:12:48.318Z,10.11
2022-09-18T07:13:54.226Z,10.12
2022-09-18T07:14:56.583Z,10.13
2022-09-18T07:16:01.935Z,10.15
2022-09-18T07:17:04.085Z,10.17
2022-09-18T07:18:08.118Z,10.18
2022-09-18T07:19:10.302Z,10.23
2022-09-18T07:20:15.036Z,10.28
2022-09-18T07:21:18.743Z,10.35
2022-09-18T07:22:21.821Z,10.43
2022-09-18T07:23:24.310Z,10.49
2022-09-18T07:24:31.122Z,10.53
2022-09-18T07:25:33.950Z,10.56
2022-09-18T07:26:37.546Z,10.57
2022-09-18T07:27:40.623Z,10.56
2022-09-18T07:28:43.624Z,10.56
2022-09-18T07:30:04.130Z,10.53
2022-09-18T07:31:07.799Z,10.50
2022-09-18T07:32:11.786Z,10.47
2022-09-18T07:33:13.893Z,10.44
2022-09-18T07:34:22.571Z,10.44
2022-09-18T07:35:24.688Z,10.44
2022-09-18T07:36:28.035Z,10.44
2022-09-18T07:37:30.161Z,10.45
2022-09-18T07:38:50.652Z,10.47
2022-09-18T07:39:55.402Z,10.49
2022-09-18T07:41:18.747Z,10.52
2022-09-18T07:42:20.906Z,10.55
2022-09-18T07:43:27.661Z,10.57
2022-09-18T07:44:31.965Z,10.64
2022-09-18T07:45:36.088Z,10.70
2022-09-18T07:46:38.387Z,10.73
2022-09-18T07:47:43.678Z,10.78
2022-09-18T07:48:46.364Z,10.82
2022-09-18T07:49:57.376Z,10.86
2022-09-18T07:51:00.077Z,10.90
2022-09-18T07:52:03.360Z,10.92
2022-09-18T07:53:09.075Z,10.94
2022-09-18T07:54:14.692Z,10.92
2022-09-18T07:55:28.623Z,10.90
2022-09-18T07:56:32.809Z,10.93
2022-09-18T07:57:35.078Z,10.95
2022-09-18T07:58:56.622Z,11.00
2022-09-18T08:00:03.494Z,11.06
2022-09-18T08:01:08.237Z,11.14
2022-09-18T08:02:18.448Z,11.24
2022-09-18T08:03:20.584Z,11.31
2022-09-18T08:04:39.159Z,11.42
2022-09-18T08:05:55.313Z,11.51
2022-09-18T08:07:03.537Z,11.52
2022-09-18T08:08:25.523Z,11.53
2022-09-18T08:09:39.012Z,11.51
2022-09-18T08:11:03.302Z,11.47
2022-09-18T08:12:41.986Z,11.43
2022-09-18T08:13:58.448Z,11.40
2022-09-18T08:15:11.303Z,11.39
2022-09-18T08:16:42.198Z,11.39
2022-09-18T08:18:05.529Z,11.42
2022-09-18T08:19:24.553Z,11.48
2022-09-18T08:20:34.500Z,11.53
2022-09-18T08:21:53.171Z,11.61
2022-09-18T08:22:58.393Z,11.69
2022-09-18T08:24:03.212Z,11.77
2022-09-18T08:25:07.180Z,11.86
2022-09-18T08:26:11.598Z,11.96
2022-09-18T08:27:14.674Z,12.07
2022-09-18T08:28:16.750Z,12.16
2022-09-18T08:29:26.421Z,12.22
2022-09-18T08:30:35.712Z,12.25
2022-09-18T08:31:42.269Z,12.28
2022-09-18T08:32:45.684Z,12.27
2022-09-18T08:33:48.840Z,12.25
2022-09-18T08:34:51.020Z,12.22
2022-09-18T08:35:55.408Z,12.20
2022-09-18T08:37:03.310Z,12.19
2022-09-18T08:38:24.152Z,12.18
2022-09-18T08:39:50.110Z,12.15
2022-09-18T08:41:15.038Z,12.13
2022-09-18T08:42:28.880Z,12.13
2022-09-18T08:43:48.158Z,12.14
2022-09-18T08:44:56.942Z,12.15
2022-09-18T08:46:02.894Z,12.18
2022-09-18T08:47:11.294Z,12.21
2022-09-18T08:48:17.803Z,12.26
2022-09-18T08:49:25.876Z,12.33
2022-09-18T08:50:38.344Z,12.47
2022-09-18T08:51:52.317Z,12.57
2022-09-18T08:53:03.513Z,12.69
2022-09-18T08:54:40.824Z,12.74
2022-09-18T08:56:22.513Z,12.76
2022-09-18T08:57:57.810Z,12.72
2022-09-18T08:59:11.316Z,12.69
2022-09-18T09:00:20.323Z,12.64
2022-09-18T09:01:40.477Z,12.59
2022-09-18T09:02:49.313Z,12.51
2022-09-18T09:03:59.436Z,12.42
2022-09-18T09:05:08.306Z,12.31
2022-09-18T09:06:28.957Z,12.22
2022-09-18T09:07:55.124Z,12.10
2022-09-18T09:09:14.908Z,12.01
2022-09-18T09:10:36.097Z,11.90
2022-09-18T09:11:48.258Z,11.81
2022-09-18T09:13:06.680Z,11.72
2022-09-18T09:14:45.832Z,11.62
2022-09-18T09:15:55.455Z,11.56
2022-09-18T09:17:05.899Z,11.55
2022-09-18T09:18:16.956Z,11.56
2022-09-18T09:19:28.803Z,11.60
2022-09-18T09:20:45.602Z,11.64
2022-09-18T09:21:55.255Z,11.67
2022-09-18T09:23:04.256Z,11.71
2022-09-18T09:24:25.693Z,11.75
2022-09-18T09:25:47.177Z,11.76
2022-09-18T09:27:23.371Z,11.77
2022-09-18T09:28:59.368Z,11.74
2022-09-18T09:30:22.034Z,11.72
2022-09-18T09:31:48.308Z,11.67
2022-09-18T09:33:08.207Z,11.63
2022-09-18T09:34:21.851Z,11.59
2022-09-18T09:35:36.410Z,11.53
2022-09-18T09:36:49.784Z,11.48
2022-09-18T09:37:53.855Z,11.43
2022-09-18T09:39:03.497Z,11.38
2022-09-18T09:40:14.642Z,11.36
2022-09-18T09:41:25.669Z,11.37
2022-09-18T09:42:33.602Z,11.44
2022-09-18T09:43:45.041Z,11.52
2022-09-18T09:44:54.226Z,11.63
2022-09-18T09:46:01.334Z,11.72
2022-09-18T09:47:16.600Z,11.83
2022-09-18T09:48:29.142Z,11.93
2022-09-18T09:49:35.251Z,12.01
2022-09-18T09:50:47.881Z,12.06
2022-09-18T09:51:58.016Z,12.09
2022-09-18T09:53:05.635Z,12.09
2022-09-18T09:54:10.424Z,12.10
2022-09-18T09:55:22.845Z,12.08
2022-09-18T09:56:33.238Z,12.11
2022-09-18T09:57:45.293Z,12.10
2022-09-18T09:58:56.176Z,12.07
2022-09-18T10:00:09.234Z,12.04
2022-09-18T10:01:36.984Z,12.01
2022-09-18T10:02:57.200Z,12.01
2022-09-18T10:04:19.260Z,12.06
2022-09-18T10:05:28.985Z,12.11
2022-09-18T10:06:42.650Z,12.17
2022-09-18T10:07:50.686Z,12.24
2022-09-18T10:09:02.417Z,12.31
2022-09-18T10:10:16.218Z,12.38
2022-09-18T10:11:19.516Z,12.47
2022-09-18T10:12:33.823Z,12.54
2022-09-18T10:13:42.777Z,12.61
2022-09-18T10:14:47.469Z,12.69
2022-09-18T10:15:59.128Z,12.76
2022-09-18T10:17:05.933Z,12.82
2022-09-18T10:18:16.627Z,12.79
2022-09-18T10:19:23.212Z,12.93
2022-09-18T10:20:27.666Z,12.97
2022-09-18T10:21:36.067Z,13.03
2022-09-18T10:22:42.894Z,13.08
2022-09-18T10:23:50.789Z,13.14
2022-09-18T10:25:02.896Z,13.20
2022-09-18T10:26:10.205Z,13.26
2022-09-18T10:27:15.541Z,13.33
2022-09-18T10:28:18.488Z,13.38
2022-09-18T10:29:23.181Z,13.46
2022-09-18T10:30:29.432Z,13.53
2022-09-18T10:31:50.316Z,13.60
2022-09-18T10:32:54.810Z,13.64
2022-09-18T10:34:26.204Z,13.65
2022-09-18T10:35:44.482Z,13.64
2022-09-18T10:36:49.509Z,13.60
2022-09-18T10:37:54.059Z,13.58
2022-09-18T10:39:18.715Z,13.49
2022-09-18T10:40:30.553Z,13.45
2022-09-18T10:41:37.995Z,13.36
2022-09-18T10:42:43.039Z,13.25
2022-09-18T10:44:04.588Z,13.01
2022-09-18T10:45:22.958Z,12.73
2022-09-18T10:46:29.670Z,12.44
2022-09-18T10:47:36.302Z,12.15
2022-09-18T10:48:44.024Z,11.91
2022-09-18T10:49:51.819Z,11.68
2022-09-18T10:50:57.290Z,11.50
2022-09-18T10:52:24.498Z,11.27
2022-09-18T10:53:32.761Z,11.15
2022-09-18T10:54:58.226Z,11.05
2022-09-18T10:56:05.956Z,10.99
2022-09-18T10:57:26.507Z,10.94
2022-09-18T10:58:32.713Z,10.90
2022-09-18T10:59:35.163Z,10.90
2022-09-18T11:00:50.158Z,10.91
2022-09-18T11:01:56.293Z,10.92
2022-09-18T11:03:07.683Z,10.93
2022-09-18T11:04:16.978Z,10.95
2022-09-18T11:05:22.097Z,10.93
2022-09-18T11:06:30.130Z,11.00
2022-09-18T11:07:39.928Z,11.06
2022-09-18T11:08:46.390Z,11.12
2022-09-18T11:09:49.664Z,11.16
2022-09-18T11:10:56.945Z,11.21
2022-09-18T11:12:01.152Z,11.24
2022-09-18T11:13:07.099Z,11.25
2022-09-18T11:14:23.206Z,11.23
2022-09-18T11:15:36.502Z,11.21
2022-09-18T11:16:44.094Z,11.23
2022-09-18T11:17:51.340Z,11.25
2022-09-18T11:19:12.761Z,11.29
2022-09-18T11:20:24.875Z,11.33
2022-09-18T11:21:43.763Z,11.39
2022-09-18T11:22:47.360Z,11.45
2022-09-18T11:24:04.155Z,11.50
2022-09-18T11:25:17.675Z,11.56
2022-09-18T11:26:28.784Z,11.61
2022-09-18T11:27:45.963Z,11.68
2022-09-18T11:29:01.258Z,11.72
2022-09-18T11:30:15.053Z,11.84
2022-09-18T11:31:22.498Z,11.92
2022-09-18T11:32:31.877Z,12.00
2022-09-18T11:33:44.357Z,12.08
2022-09-18T11:34:51.583Z,12.15
2022-09-18T11:36:00.119Z,12.19
2022-09-18T11:37:08.841Z,12.25
2022-09-18T11:38:19.384Z,12.29
2022-09-18T11:39:28.191Z,12.35
2022-09-18T11:40:33.625Z,12.38
2022-09-18T11:41:38.704Z,12.40
2022-09-18T11:42:42.445Z,12.41
2022-09-18T11:43:46.834Z,12.42
2022-09-18T11:44:50.447Z,12.42
2022-09-18T11:46:01.556Z,12.43
2022-09-18T11:47:29.918Z,12.45
2022-09-18T11:48:39.922Z,12.46
2022-09-18T11:49:46.075Z,12.45
2022-09-18T11:50:55.815Z,12.39
2022-09-18T11:52:01.466Z,12.29
2022-09-18T11:53:16.395Z,12.16
2022-09-18T11:54:28.365Z,12.02
2022-09-18T11:55:35.233Z,11.91
2022-09-18T11:56:42.497Z,11.79
2022-09-18T11:57:56.193Z,11.69
2022-09-18T11:59:04.062Z,11.60
2022-09-18T12:00:15.505Z,11.53
2022-09-18T12:01:44.628Z,11.47
2022-09-18T12:03:01.118Z,11.44
2022-09-18T12:04:16.219Z,11.42
2022-09-18T12:05:24.597Z,11.39
2022-09-18T12:06:37.377Z,11.38
2022-09-18T12:07:44.275Z,11.38
2022-09-18T12:08:53.800Z,11.36
2022-09-18T12:10:06.249Z,11.37
2022-09-18T12:11:14.036Z,11.39
2022-09-18T12:12:21.823Z,11.41
2022-09-18T12:13:47.051Z,11.45
2022-09-18T12:14:57.013Z,11.51
2022-09-18T12:16:05.487Z,11.56
2022-09-18T12:17:16.899Z,11.65
2022-09-18T12:18:25.695Z,11.70
2022-09-18T12:19:34.319Z,11.78
2022-09-18T12:20:41.537Z,11.86
2022-09-18T12:22:00.122Z,11.96
2022-09-18T12:23:04.826Z,12.06
2022-09-18T12:24:13.819Z,12.16
2022-09-18T12:25:18.047Z,12.28
2022-09-18T12:26:54.183Z,12.45
2022-09-18T12:28:07.459Z,12.56
2022-09-18T12:29:21.709Z,12.64
2022-09-18T12:30:35.757Z,12.64
2022-09-18T12:31:51.369Z,12.61
2022-09-18T12:33:14.462Z,12.53
2022-09-18T12:34:25.856Z,12.45
2022-09-18T12:35:39.086Z,12.37
2022-09-18T12:36:56.208Z,12.28
2022-09-18T12:38:11.358Z,12.24
2022-09-18T12:39:28.196Z,12.20
2022-09-18T12:41:02.313Z,12.20
2022-09-18T12:42:15.182Z,12.22
2022-09-18T12:43:38.223Z,12.28
2022-09-18T12:44:57.445Z,12.33
2022-09-18T12:46:12.750Z,12.40
2022-09-18T12:47:36.153Z,12.45
2022-09-18T12:48:51.531Z,12.46
2022-09-18T12:50:16.876Z,12.42
2022-09-18T12:51:39.313Z,12.37
2022-09-18T12:53:08.595Z,12.29
2022-09-18T12:54:32.375Z,12.14
2022-09-18T12:55:43.888Z,12.09
2022-09-18T12:57:02.021Z,11.99
2022-09-18T12:58:21.179Z,11.88
2022-09-18T12:59:43.746Z,11.75
2022-09-18T13:00:54.365Z,11.67
2022-09-18T13:02:42.750Z,11.59
2022-09-18T13:03:54.314Z,11.46
2022-09-18T13:07:18.131Z,11.36
2022-09-18T13:08:31.196Z,11.32
2022-09-18T13:09:41.527Z,11.37
2022-09-18T13:10:47.099Z,11.40
2022-09-18T13:11:54.033Z,11.41
2022-09-18T13:13:03.680Z,11.39
2022-09-18T13:14:12.831Z,11.43
2022-09-18T13:15:20.118Z,11.42
2022-09-18T13:16:28.631Z,11.42
2022-09-18T13:17:37.526Z,11.40
2022-09-18T13:18:46.816Z,11.37
2022-09-18T13:19:53.792Z,11.35
2022-09-18T13:21:00.844Z,11.33
2022-09-18T13:22:07.086Z,11.32
2022-09-18T13:23:17.034Z,11.31
2022-09-18T13:24:24.069Z,11.24
2022-09-18T13:25:30.966Z,11.26
2022-09-18T13:26:38.597Z,11.24
2022-09-18T13:27:42.100Z,11.23
2022-09-18T13:28:45.588Z,11.21
2022-09-18T13:29:56.922Z,11.18
2022-09-18T13:31:24.960Z,11.13
2022-09-18T13:32:40.943Z,11.07
2022-09-18T13:33:51.091Z,11.08
2022-09-18T13:34:56.855Z,11.07
2022-09-18T13:36:00.634Z,11.05
2022-09-18T13:37:06.521Z,11.03
2022-09-18T13:38:19.656Z,11.03
2022-09-18T13:39:27.060Z,11.02
2022-09-18T13:40:35.946Z,11.00
2022-09-18T13:41:45.225Z,10.98
2022-09-18T13:42:47.511Z,10.97
2022-09-18T13:43:55.426Z,10.87
2022-09-18T13:45:05.628Z,10.93
2022-09-18T13:46:12.128Z,10.93
2022-09-18T13:47:16.157Z,10.92
2022-09-18T13:48:28.094Z,10.91
2022-09-18T13:49:33.393Z,10.92
2022-09-18T13:50:37.102Z,10.89
2022-09-18T13:51:42.039Z,10.81
2022-09-18T13:52:47.495Z,10.90
2022-09-18T13:54:18.964Z,10.87
2022-09-18T13:55:48.444Z,10.90
2022-09-18T13:57:20.640Z,10.89
2022-09-18T13:58:36.517Z,10.83
2022-09-18T13:59:49.480Z,10.85
2022-09-18T14:00:55.821Z,10.81
2022-09-18T14:02:03.543Z,10.74
2022-09-18T14:03:35.723Z,10.64
2022-09-18T14:05:30.127Z,10.50
2022-09-18T14:06:45.192Z,10.36
2022-09-18T14:08:00.246Z,10.25
2022-09-18T14:09:16.065Z,10.12
2022-09-18T14:10:25.248Z,10.05
2022-09-18T14:11:29.904Z,10.00
2022-09-18T14:12:34.388Z,9.94
2022-09-18T14:13:48.935Z,9.91
2022-09-18T14:15:01.520Z,9.88
2022-09-18T14:16:10.161Z,9.87
2022-09-18T14:17:14.189Z,9.87
2022-09-18T14:18:24.547Z,9.87
2022-09-18T14:19:32.372Z,9.90
2022-09-18T14:20:35.210Z,9.91
2022-09-18T14:21:41.877Z,9.94
2022-09-18T14:22:44.114Z,10.02
2022-09-18T14:24:32.106Z,10.13
2022-09-18T14:25:46.347Z,10.24
2022-09-18T14:27:29.725Z,10.36
2022-09-18T14:28:33.574Z,10.47
2022-09-18T14:29:35.733Z,10.53
2022-09-18T14:30:38.851Z,10.59
2022-09-18T14:31:47.098Z,10.66
2022-09-18T14:33:01.768Z,10.64
2022-09-18T14:34:12.517Z,10.77
2022-09-18T14:35:22.997Z,10.83
2022-09-18T14:36:26.097Z,10.89
2022-09-18T14:37:30.632Z,10.93
2022-09-18T14:38:36.270Z,10.97
2022-09-18T14:39:38.472Z,11.03
2022-09-18T14:40:41.853Z,11.06
2022-09-18T14:41:44.921Z,11.11
2022-09-18T14:42:49.879Z,11.14
2022-09-18T14:43:57.126Z,11.21
2022-09-18T14:45:20.553Z,11.27
2022-09-18T14:46:25.284Z,11.31
2022-09-18T14:47:27.598Z,11.33
2022-09-18T14:48:36.153Z,11.36
2022-09-18T14:49:43.645Z,11.35
2022-09-18T14:51:00.301Z,11.36
2022-09-18T14:52:04.568Z,11.34
2022-09-18T14:53:21.671Z,11.33
2022-09-18T14:54:25.650Z,11.31
2022-09-18T14:55:33.416Z,11.31
2022-09-18T14:56:37.455Z,11.30
2022-09-18T14:57:45.706Z,11.31
2022-09-18T14:58:51.172Z,11.33
2022-09-18T14:59:56.582Z,11.36
2022-09-18T15:01:00.150Z,11.39
2022-09-18T15:02:20.603Z,11.42
2022-09-18T15:03:26.504Z,11.47
2022-09-18T15:04:30.879Z,11.50
2022-09-18T15:05:34.211Z,11.54